Time;durP1;ratioP1;P1;durP2;ratioP2;P2;SDS_P1;SDS_P2;PMS_P1;PMS_P2;Temp;Humidity;BMP_temperature;BMP_pressure;BME280_temperature;BME280_humidity;BME280_pressure;Samples;Min_cycle;Max_cycle;Signal;HPM_P1;HPM_P2
2022/11/23 00:00:05;;;;;;;12.75;3.50;;;;;;;9.36;100.00;99476.25;5241838;28;20029;-71
2022/11/23 00:02:36;;;;;;;11.38;3.20;;;;;;;9.38;100.00;99466.44;5240863;28;20478;-71
2022/11/23 00:05:07;;;;;;;7.88;2.97;;;;;;;9.42;100.00;99470.38;5241460;28;20132;-70
2022/11/23 00:07:39;;;;;;;11.02;2.47;;;;;;;9.42;100.00;99477.41;5245582;28;20192;-71
2022/11/23 00:10:10;;;;;;;12.65;2.92;;;;;;;9.41;100.00;99486.22;5244508;28;20025;-70
2022/11/23 00:12:41;;;;;;;10.88;3.40;;;;;;;9.40;100.00;99480.19;5246092;28;20028;-70
2022/11/23 00:15:14;;;;;;;6.78;3.08;;;;;;;9.44;100.00;99486.72;5242638;28;20437;-71
2022/11/23 00:17:47;;;;;;;8.73;3.00;;;;;;;9.44;100.00;99485.91;5243699;28;20502;-71
2022/11/23 00:20:18;;;;;;;8.90;2.53;;;;;;;9.41;100.00;99487.03;5244989;28;20120;-70
2022/11/23 00:22:49;;;;;;;11.35;2.67;;;;;;;9.44;100.00;99483.31;5245567;28;20534;-69
2022/11/23 00:25:21;;;;;;;10.10;3.25;;;;;;;9.43;100.00;99489.50;5241594;28;20074;-69
2022/11/23 00:27:52;;;;;;;13.10;3.25;;;;;;;9.40;100.00;99493.25;5243254;28;20037;-69
2022/11/23 00:30:23;;;;;;;10.02;2.85;;;;;;;9.45;100.00;99490.16;5246686;28;20079;-70
2022/11/23 00:32:55;;;;;;;9.15;2.58;;;;;;;9.46;100.00;99497.03;5242457;28;20048;-70
2022/11/23 00:35:26;;;;;;;9.57;2.80;;;;;;;9.41;100.00;99494.88;5244046;28;20064;-70
2022/11/23 00:37:57;;;;;;;10.60;2.58;;;;;;;9.43;100.00;99500.78;5246243;28;20044;-69
2022/11/23 00:40:28;;;;;;;10.90;3.10;;;;;;;9.45;100.00;99501.44;5241098;28;20116;-70
2022/11/23 00:43:00;;;;;;;10.45;3.45;;;;;;;9.43;100.00;99497.31;5243319;28;20025;-70
2022/11/23 00:45:31;;;;;;;11.20;2.47;;;;;;;9.39;100.00;99494.19;5243027;28;20037;-69
2022/11/23 00:48:02;;;;;;;9.10;2.33;;;;;;;9.43;100.00;99506.00;5242527;28;20031;-70
2022/11/23 00:50:34;;;;;;;10.82;3.00;;;;;;;9.45;100.00;99500.63;5222599;28;20410;-70
2022/11/23 00:53:05;;;;;;;10.82;2.67;;;;;;;9.47;100.00;99509.97;5244332;28;20087;-71
2022/11/23 00:55:36;;;;;;;11.10;2.53;;;;;;;9.50;100.00;99504.38;5240278;28;20410;-70
2022/11/23 00:58:07;;;;;;;9.05;2.33;;;;;;;9.48;100.00;99503.75;5229401;28;20394;-70
2022/11/23 01:00:39;;;;;;;12.55;2.83;;;;;;;9.47;100.00;99502.13;5242648;28;20540;-70
2022/11/23 01:03:10;;;;;;;11.05;3.17;;;;;;;9.46;100.00;99507.47;5245391;28;20134;-70
2022/11/23 01:05:41;;;;;;;8.73;2.38;;;;;;;9.45;100.00;99511.88;5245401;28;20032;-69
2022/11/23 01:08:13;;;;;;;8.70;3.10;;;;;;;9.46;100.00;99510.91;5242495;28;20108;-70
2022/11/23 01:10:44;;;;;;;12.98;2.20;;;;;;;9.44;100.00;99512.06;5244291;28;20025;-72
2022/11/23 01:13:15;;;;;;;10.05;2.63;;;;;;;9.47;100.00;99506.50;5246081;28;20034;-70
2022/11/23 01:15:50;;;;;;;10.73;2.75;;;;;;;9.52;100.00;99512.09;5241832;28;20021;-70
2022/11/23 01:18:21;;;;;;;7.75;2.20;;;;;;;9.39;100.00;99499.44;5239576;28;20050;-70
2022/11/23 01:20:53;;;;;;;10.45;2.92;;;;;;;9.45;100.00;99503.22;5220477;28;20424;-69
2022/11/23 01:23:27;;;;;;;9.48;1.95;;;;;;;9.47;100.00;99498.66;5243639;28;20455;-70
2022/11/23 01:26:09;;;;;;;10.85;2.42;;;;;;;9.58;100.00;99506.22;5245429;28;20025;-70
2022/11/23 01:28:40;;;;;;;8.85;2.28;;;;;;;9.44;100.00;99519.91;5240175;28;20029;-69
2022/11/23 01:31:15;;;;;;;8.45;2.28;;;;;;;9.50;100.00;99517.47;5243078;28;20088;-70
2022/11/23 01:33:50;;;;;;;10.77;2.65;;;;;;;9.45;100.00;99518.91;5239775;28;20032;-70
2022/11/23 01:36:24;;;;;;;7.47;2.20;;;;;;;9.45;100.00;99522.34;5243306;28;20041;-71
2022/11/23 01:38:58;;;;;;;10.43;2.80;;;;;;;9.49;100.00;99531.50;5239316;28;20024;-70
2022/11/23 01:41:32;;;;;;;8.07;2.17;;;;;;;9.55;100.00;99534.50;5238908;28;20500;-69
2022/11/23 01:44:23;;;;;;;8.30;2.30;;;;;;;9.78;100.00;99535.59;5240984;28;20041;-69
2022/11/23 01:46:57;;;;;;;10.85;2.53;;;;;;;9.52;100.00;99532.19;5242539;28;20099;-70
2022/11/23 01:49:34;;;;;;;10.23;2.50;;;;;;;9.50;100.00;99538.38;5243334;28;20378;-70
2022/11/23 01:52:21;;;;;;;9.77;2.25;;;;;;;9.56;100.00;99542.19;5241071;28;20044;-70
2022/11/23 01:54:55;;;;;;;8.77;2.40;;;;;;;9.53;100.00;99537.25;5241299;28;20036;-70
2022/11/23 01:57:40;;;;;;;8.75;2.25;;;;;;;9.57;100.00;99537.78;5240838;28;20021;-69
2022/11/23 02:00:12;;;;;;;10.02;2.20;;;;;;;9.55;100.00;99542.34;5238250;28;20025;-70
2022/11/23 02:02:50;;;;;;;8.60;2.05;;;;;;;9.61;100.00;99539.09;5245454;28;20041;-70
2022/11/23 02:05:28;;;;;;;8.10;2.70;;;;;;;9.60;100.00;99537.47;5240906;28;20474;-70
2022/11/23 02:08:00;;;;;;;8.73;2.30;;;;;;;9.59;100.00;99547.09;5241887;28;20487;-71
2022/11/23 02:10:33;;;;;;;10.40;2.45;;;;;;;9.56;100.00;99544.78;5239574;28;20082;-70
2022/11/23 02:13:07;;;;;;;6.70;2.25;;;;;;;9.61;100.00;99544.31;5240764;28;20044;-69
2022/11/23 02:15:39;;;;;;;9.43;2.55;;;;;;;9.47;100.00;99545.72;5240363;28;20022;-70
2022/11/23 02:18:23;;;;;;;10.25;1.90;;;;;;;9.61;100.00;99549.56;5242970;28;20041;-69
2022/11/23 02:20:58;;;;;;;11.43;2.67;;;;;;;9.48;100.00;99545.56;5240976;28;20033;-69
2022/11/23 02:23:36;;;;;;;12.57;2.50;;;;;;;9.60;100.00;99542.69;5236576;28;20021;-69
2022/11/23 02:26:18;;;;;;;9.32;2.03;;;;;;;9.63;100.00;99555.47;5242808;28;20433;-71
2022/11/23 02:29:08;;;;;;;11.80;2.65;;;;;;;9.77;100.00;99557.47;5239280;28;20032;-70
2022/11/23 02:31:40;;;;;;;8.88;2.15;;;;;;;9.53;100.00;99562.59;5240747;28;20506;-70
2022/11/23 02:34:11;;;;;;;10.10;2.45;;;;;;;9.55;100.00;99555.41;5243325;28;20018;-70
2022/11/23 02:36:46;;;;;;;11.68;2.13;;;;;;;9.61;100.00;99555.59;5243981;28;20021;-70
2022/11/23 02:39:20;;;;;;;7.82;2.33;;;;;;;9.50;100.00;99555.88;5243021;28;20052;-70
2022/11/23 02:41:53;;;;;;;10.98;2.78;;;;;;;9.53;100.00;99557.34;5240872;28;20039;-69
2022/11/23 02:44:38;;;;;;;8.98;2.28;;;;;;;9.68;100.00;99561.03;5239931;28;20029;-69
2022/11/23 02:47:10;;;;;;;8.60;2.40;;;;;;;9.55;100.00;99564.09;5268856;22;20064;-69
2022/11/23 02:49:45;;;;;;;9.25;2.58;;;;;;;9.62;100.00;99566.88;5248110;28;20029;-68
2022/11/23 02:52:17;;;;;;;13.32;3.20;;;;;;;9.55;100.00;99560.66;5252068;28;20024;-68
2022/11/23 02:54:48;;;;;;;11.05;2.80;;;;;;;9.46;100.00;99555.34;5252774;28;20025;-68
2022/11/23 02:57:19;;;;;;;10.60;2.50;;;;;;;9.56;100.00;99564.91;5244729;28;20016;-68
2022/11/23 02:59:51;;;;;;;7.38;2.35;;;;;;;9.58;100.00;99562.94;5242807;28;20477;-68
2022/11/23 03:02:22;;;;;;;11.70;2.55;;;;;;;9.57;100.00;99563.91;5235078;28;20025;-68
2022/11/23 03:04:53;;;;;;;11.23;3.03;;;;;;;9.56;100.00;99568.31;5240344;28;20033;-68
2022/11/23 03:07:24;;;;;;;9.77;2.33;;;;;;;9.59;100.00;99561.97;5242670;28;20025;-68
2022/11/23 03:09:56;;;;;;;11.15;2.65;;;;;;;9.55;100.00;99569.31;5243320;28;20030;-69
2022/11/23 03:12:27;;;;;;;9.18;2.75;;;;;;;9.57;100.00;99564.72;5239611;28;20033;-69
2022/11/23 03:14:58;;;;;;;11.32;3.10;;;;;;;9.56;100.00;99572.75;5241874;28;20060;-69
2022/11/23 03:17:29;;;;;;;11.65;3.25;;;;;;;9.52;100.00;99566.19;5243806;28;20013;-69
2022/11/23 03:20:01;;;;;;;10.05;3.35;;;;;;;9.51;100.00;99575.81;5243095;28;20386;-68
2022/11/23 03:22:33;;;;;;;11.30;2.65;;;;;;;9.48;100.00;99566.47;5224676;28;20029;-68
2022/11/23 03:25:04;;;;;;;12.00;3.03;;;;;;;9.54;100.00;99574.69;5239455;28;20207;-68
2022/11/23 03:27:37;;;;;;;12.52;3.40;;;;;;;9.55;100.00;99571.09;5240241;28;20545;-69
2022/11/23 03:30:09;;;;;;;9.98;2.40;;;;;;;9.57;100.00;99572.56;5225598;28;20090;-68
2022/11/23 03:32:40;;;;;;;10.93;2.80;;;;;;;9.59;100.00;99567.22;5238687;28;20028;-68
2022/11/23 03:35:11;;;;;;;9.20;2.80;;;;;;;9.47;100.00;99572.69;5244773;28;20029;-69
2022/11/23 03:37:43;;;;;;;11.95;3.97;;;;;;;9.48;100.00;99569.09;5240428;28;20020;-68
2022/11/23 03:40:14;;;;;;;13.07;2.97;;;;;;;9.48;100.00;99563.06;5241300;28;20078;-69
2022/11/23 03:42:45;;;;;;;9.50;2.22;;;;;;;9.52;100.00;99571.41;5238130;28;20069;-68
2022/11/23 03:45:16;;;;;;;12.60;2.63;;;;;;;9.47;100.00;99564.00;5249120;28;20029;-69
2022/11/23 03:47:48;;;;;;;9.93;2.63;;;;;;;9.46;100.00;99563.19;5244301;28;20067;-68
2022/11/23 03:50:19;;;;;;;13.68;2.60;;;;;;;9.47;100.00;99559.63;5244186;28;20021;-69
2022/11/23 03:52:50;;;;;;;9.35;2.50;;;;;;;9.47;100.00;99564.00;5244449;28;20357;-68
2022/11/23 03:55:21;;;;;;;10.38;2.38;;;;;;;9.43;100.00;99565.28;5246434;28;20495;-68
2022/11/23 03:57:54;;;;;;;8.93;2.20;;;;;;;9.44;100.00;99567.78;5245891;28;20028;-68
2022/11/23 04:00:29;;;;;;;11.48;2.90;;;;;;;9.48;100.00;99563.88;5243865;28;20025;-68
2022/11/23 04:03:00;;;;;;;9.63;2.60;;;;;;;9.41;100.00;99570.69;5245932;28;20168;-68
2022/11/23 04:05:31;;;;;;;12.82;2.95;;;;;;;9.44;100.00;99570.38;5245245;28;20025;-68
2022/11/23 04:08:03;;;;;;;12.90;2.60;;;;;;;9.47;100.00;99571.84;5244676;28;20021;-68
2022/11/23 04:10:34;;;;;;;13.15;2.83;;;;;;;9.46;100.00;99575.44;5243118;28;20390;-68
2022/11/23 04:13:05;;;;;;;7.60;2.30;;;;;;;9.42;100.00;99572.31;5244863;28;20025;-68
2022/11/23 04:15:37;;;;;;;13.55;2.65;;;;;;;9.40;100.00;99573.47;5246497;28;20074;-68
2022/11/23 04:18:08;;;;;;;12.38;2.25;;;;;;;9.42;100.00;99579.34;5244738;28;20021;-68
2022/11/23 04:20:39;;;;;;;10.50;2.83;;;;;;;9.42;100.00;99572.31;5243090;28;20024;-68
2022/11/23 04:23:10;;;;;;;15.57;3.13;;;;;;;9.43;100.00;99576.59;5243755;28;20021;-69
2022/11/23 04:25:42;;;;;;;13.18;2.97;;;;;;;9.37;100.00;99555.47;5240275;28;20018;-68
2022/11/23 04:28:13;;;;;;;9.38;2.00;;;;;;;9.48;100.00;99570.91;5246191;28;20037;-69
2022/11/23 04:30:44;;;;;;;11.60;2.90;;;;;;;9.46;100.00;99570.22;5245185;28;20498;-68
2022/11/23 04:33:16;;;;;;;7.82;2.53;;;;;;;9.46;100.00;99562.38;5238559;28;20037;-68
2022/11/23 04:35:47;;;;;;;13.00;2.88;;;;;;;9.47;100.00;99564.00;5241919;28;20014;-68
2022/11/23 04:38:18;;;;;;;10.68;3.05;;;;;;;9.44;100.00;99561.72;5242508;28;20033;-68
2022/11/23 04:40:49;;;;;;;9.00;2.30;;;;;;;9.41;100.00;99562.84;5245880;28;20020;-68
2022/11/23 04:43:21;;;;;;;14.20;3.42;;;;;;;9.41;100.00;99573.31;5243266;28;20099;-69
2022/11/23 04:45:52;;;;;;;14.35;3.00;;;;;;;9.40;100.00;99563.81;5242458;28;20496;-69
2022/11/23 04:48:23;;;;;;;10.27;2.92;;;;;;;9.39;100.00;99564.78;5243967;28;20052;-69
2022/11/23 04:50:54;;;;;;;10.00;2.38;;;;;;;9.38;100.00;99573.59;5243857;28;20067;-68
2022/11/23 04:53:26;;;;;;;12.77;2.80;;;;;;;9.37;100.00;99573.78;5242611;28;20385;-68
2022/11/23 04:55:57;;;;;;;12.80;3.45;;;;;;;9.32;100.00;99581.22;5243806;28;20029;-68
2022/11/23 04:58:28;;;;;;;11.93;2.55;;;;;;;9.23;100.00;99573.34;5247315;28;20502;-68
2022/11/23 05:00:59;;;;;;;12.77;2.80;;;;;;;9.23;100.00;99575.13;5240893;28;20029;-68
2022/11/23 05:03:33;;;;;;;12.13;2.75;;;;;;;9.19;100.00;99579.84;5240521;28;20032;-68
2022/11/23 05:06:06;;;;;;;17.85;3.45;;;;;;;9.09;100.00;99567.84;5241900;28;20032;-68
2022/11/23 05:08:37;;;;;;;10.43;2.63;;;;;;;9.09;100.00;99571.28;5240476;28;20549;-68
2022/11/23 05:11:08;;;;;;;8.70;2.60;;;;;;;9.06;100.00;99565.56;5247058;28;20031;-68
2022/11/23 05:13:40;;;;;;;16.67;3.80;;;;;;;9.04;100.00;99567.47;5240690;28;20116;-68
2022/11/23 05:16:11;;;;;;;11.70;3.17;;;;;;;9.02;100.00;99570.25;5244669;28;20115;-68
2022/11/23 05:18:42;;;;;;;11.73;2.50;;;;;;;8.96;100.00;99552.56;5245606;28;20024;-68
2022/11/23 05:21:13;;;;;;;13.48;3.10;;;;;;;8.99;100.00;99563.53;5224529;28;20036;-69
2022/11/23 05:23:45;;;;;;;11.90;3.10;;;;;;;9.01;100.00;99558.97;5241401;28;20482;-68
2022/11/23 05:26:16;;;;;;;15.93;2.67;;;;;;;9.01;100.00;99561.56;5242555;28;20025;-69
2022/11/23 05:28:47;;;;;;;10.40;2.72;;;;;;;9.00;100.00;99566.97;5242026;28;20029;-68
2022/11/23 05:31:18;;;;;;;12.18;2.97;;;;;;;8.99;100.00;99566.16;5245444;28;20476;-68
2022/11/23 05:33:50;;;;;;;13.20;3.40;;;;;;;9.00;100.00;99562.56;5243424;28;20082;-68
2022/11/23 05:36:21;;;;;;;13.32;3.15;;;;;;;9.02;100.00;99565.84;5246676;28;20021;-69
2022/11/23 05:38:52;;;;;;;14.48;4.05;;;;;;;9.02;100.00;99563.25;5242662;28;20037;-68
2022/11/23 05:41:23;;;;;;;13.45;3.70;;;;;;;9.00;100.00;99572.19;5245381;28;20020;-68
2022/11/23 05:43:55;;;;;;;17.13;4.47;;;;;;;8.97;100.00;99577.72;5242226;28;20032;-68
2022/11/23 05:46:26;;;;;;;17.80;3.10;;;;;;;8.93;100.00;99571.97;5222313;28;20068;-68
2022/11/23 05:48:57;;;;;;;15.07;3.13;;;;;;;8.92;100.00;99572.94;5245057;28;20052;-68
2022/11/23 05:51:29;;;;;;;15.18;3.50;;;;;;;8.90;100.00;99577.50;5241422;28;20029;-68
2022/11/23 05:54:00;;;;;;;15.18;3.38;;;;;;;8.91;100.00;99573.09;5225364;28;20060;-68
2022/11/23 05:56:32;;;;;;;14.25;4.20;;;;;;;8.88;100.00;99574.22;5236454;28;20083;-68
2022/11/23 05:59:04;;;;;;;11.38;2.92;;;;;;;8.85;100.00;99577.13;5238532;28;21920;-68
2022/11/23 06:01:35;;;;;;;15.30;3.05;;;;;;;8.82;100.00;99579.22;5239772;28;20033;-67
2022/11/23 06:04:06;;;;;;;17.23;3.50;;;;;;;8.80;100.00;99574.16;5246760;28;20041;-68
2022/11/23 06:06:37;;;;;;;19.77;3.50;;;;;;;8.84;100.00;99577.28;5244131;28;20022;-68
2022/11/23 06:09:10;;;;;;;15.05;2.83;;;;;;;8.84;100.00;99572.88;5242103;28;20375;-68
2022/11/23 06:11:43;;;;;;;11.32;2.95;;;;;;;8.81;100.00;99577.56;5242208;28;20103;-68
2022/11/23 06:14:14;;;;;;;12.35;3.10;;;;;;;8.89;100.00;99580.25;5242777;28;20395;-68
2022/11/23 06:16:45;;;;;;;17.30;3.88;;;;;;;8.87;100.00;99577.00;5243947;28;20027;-68
2022/11/23 06:19:16;;;;;;;13.82;3.42;;;;;;;8.85;100.00;99584.13;5239040;28;20040;-68
2022/11/23 06:21:48;;;;;;;17.35;3.67;;;;;;;8.91;100.00;99584.38;5237826;28;20029;-68
2022/11/23 06:24:19;;;;;;;19.10;3.13;;;;;;;8.91;100.00;99573.91;5241470;28;20116;-68
2022/11/23 06:26:51;;;;;;;14.00;3.42;;;;;;;8.88;100.00;99582.03;5239186;28;20022;-68
2022/11/23 06:29:22;;;;;;;14.15;3.08;;;;;;;8.84;100.00;99582.50;5242074;28;20037;-69
2022/11/23 06:31:53;;;;;;;14.93;3.30;;;;;;;8.88;100.00;99589.06;5236947;28;20048;-68
2022/11/23 06:34:25;;;;;;;14.68;3.45;;;;;;;8.85;100.00;99587.56;5235396;28;20458;-68
2022/11/23 06:36:56;;;;;;;12.20;3.38;;;;;;;8.86;100.00;99591.81;5236252;28;20426;-68
2022/11/23 06:39:27;;;;;;;14.48;3.17;;;;;;;8.85;100.00;99584.94;5237885;28;20432;-68
2022/11/23 06:41:59;;;;;;;13.23;3.38;;;;;;;8.87;100.00;99585.63;5238732;28;20052;-68
2022/11/23 06:44:30;;;;;;;11.75;3.15;;;;;;;8.89;100.00;99593.31;5239423;28;20065;-68
2022/11/23 06:47:01;;;;;;;17.50;3.53;;;;;;;8.89;100.00;99594.13;5239523;28;20030;-68
2022/11/23 06:49:32;;;;;;;11.98;3.45;;;;;;;8.90;100.00;99592.34;5239480;28;20448;-68
2022/11/23 06:52:04;;;;;;;13.07;3.13;;;;;;;8.91;100.00;99594.00;5242838;28;20390;-68
2022/11/23 06:54:35;;;;;;;13.45;3.20;;;;;;;8.91;100.00;99600.03;5242489;28;20493;-68
2022/11/23 06:57:07;;;;;;;12.68;3.45;;;;;;;8.91;100.00;99594.81;5241564;28;20148;-68
2022/11/23 06:59:38;;;;;;;13.60;2.78;;;;;;;8.89;100.00;99603.75;5239595;28;20358;-68
2022/11/23 07:02:09;;;;;;;10.27;2.80;;;;;;;8.88;100.00;99613.38;5243035;28;20494;-68
2022/11/23 07:04:41;;;;;;;15.40;3.65;;;;;;;8.88;100.00;99615.19;5236578;28;20509;-68
2022/11/23 07:07:12;;;;;;;12.13;3.33;;;;;;;8.84;100.00;99619.88;5242599;28;20063;-68
2022/11/23 07:09:43;;;;;;;11.68;3.05;;;;;;;8.87;100.00;99624.00;5242993;28;20138;-68
2022/11/23 07:12:14;;;;;;;12.45;3.30;;;;;;;8.86;100.00;99619.72;5242402;28;20022;-68
2022/11/23 07:14:46;;;;;;;13.20;4.00;;;;;;;8.82;100.00;99631.44;5240857;28;20112;-68
2022/11/23 07:17:17;;;;;;;12.25;3.50;;;;;;;8.82;100.00;99626.22;5242642;28;20070;-69
2022/11/23 07:19:48;;;;;;;12.48;3.28;;;;;;;8.79;100.00;99637.81;5243650;28;20037;-68
2022/11/23 07:22:20;;;;;;;11.90;3.30;;;;;;;8.76;100.00;99632.88;5250558;28;20491;-68
2022/11/23 07:24:51;;;;;;;14.38;2.83;;;;;;;8.71;100.00;99629.84;5248154;28;20537;-68
2022/11/23 07:27:22;;;;;;;14.10;3.45;;;;;;;8.72;100.00;99650.63;5247980;28;20490;-68
2022/11/23 07:29:53;;;;;;;12.20;2.40;;;;;;;8.66;100.00;99653.00;5244917;28;20025;-68
2022/11/23 07:32:25;;;;;;;13.50;2.88;;;;;;;8.60;100.00;99650.94;5244445;28;20025;-68
2022/11/23 07:34:56;;;;;;;15.15;3.20;;;;;;;8.58;100.00;99650.28;5245301;28;20029;-68
2022/11/23 07:37:27;;;;;;;13.90;2.90;;;;;;;8.53;100.00;99648.94;5239853;28;20379;-68
2022/11/23 07:39:58;;;;;;;11.18;2.55;;;;;;;8.53;100.00;99659.38;5249474;28;20370;-68
2022/11/23 07:42:30;;;;;;;12.35;2.80;;;;;;;8.50;100.00;99661.47;5248104;28;20393;-68
2022/11/23 07:45:03;;;;;;;10.82;3.47;;;;;;;8.38;100.00;99636.53;5247231;28;20099;-68
2022/11/23 07:47:34;;;;;;;9.88;2.63;;;;;;;8.42;100.00;99667.41;5245148;28;20456;-68
2022/11/23 07:50:07;;;;;;;16.70;3.33;;;;;;;8.44;100.00;99670.69;5242189;28;20040;-68
2022/11/23 07:52:39;;;;;;;16.27;3.70;;;;;;;8.40;100.00;99678.94;5241997;28;20024;-68
2022/11/23 07:55:11;;;;;;;12.40;2.47;;;;;;;8.41;100.00;99676.22;5247033;28;20478;-68
2022/11/23 07:57:42;;;;;;;13.02;2.90;;;;;;;8.39;100.00;99690.38;5229267;28;20032;-68
2022/11/23 08:00:14;;;;;;;12.25;3.35;;;;;;;8.38;100.00;99684.34;5245216;28;20021;-68
2022/11/23 08:02:45;;;;;;;12.85;2.50;;;;;;;8.32;100.00;99677.03;5247321;28;20033;-68
2022/11/23 08:05:16;;;;;;;15.68;3.75;;;;;;;8.35;100.00;99683.75;5244756;28;20027;-68
2022/11/23 08:07:48;;;;;;;10.00;2.75;;;;;;;8.33;100.00;99680.47;5243578;28;20040;-68
2022/11/23 08:10:19;;;;;;;14.93;3.25;;;;;;;8.33;100.00;99675.25;5246940;28;20035;-68
2022/11/23 08:12:50;;;;;;;14.68;3.22;;;;;;;8.35;100.00;99679.38;5243467;28;20029;-68
2022/11/23 08:15:22;;;;;;;12.48;2.85;;;;;;;8.37;100.00;99682.69;5240169;28;20069;-68
2022/11/23 08:17:59;;;;;;;12.60;3.15;;;;;;;8.52;100.00;99677.78;5242689;28;20029;-68
2022/11/23 08:20:30;;;;;;;11.88;2.53;;;;;;;8.43;100.00;99683.88;5240219;28;20437;-68
2022/11/23 08:23:01;;;;;;;15.25;2.83;;;;;;;8.43;100.00;99678.66;5242902;28;20030;-68
2022/11/23 08:25:33;;;;;;;14.63;3.17;;;;;;;8.43;100.00;99679.50;5244593;28;20059;-68
2022/11/23 08:28:04;;;;;;;11.38;2.83;;;;;;;8.41;100.00;99688.41;5244669;28;20047;-68
2022/11/23 08:30:36;;;;;;;9.65;3.00;;;;;;;8.32;100.00;99687.47;5240804;28;20108;-68
2022/11/23 08:33:08;;;;;;;9.57;2.10;;;;;;;8.34;100.00;99684.75;5245950;28;20424;-68
2022/11/23 08:35:41;;;;;;;12.00;2.58;;;;;;;8.43;100.00;99689.94;5244254;28;20028;-68
2022/11/23 08:38:12;;;;;;;10.95;2.85;;;;;;;8.40;100.00;99689.38;5244327;28;20033;-68
2022/11/23 08:40:44;;;;;;;14.48;2.60;;;;;;;8.52;100.00;99691.69;5244086;28;20044;-68
2022/11/23 08:43:15;;;;;;;15.85;3.63;;;;;;;8.46;100.00;99689.66;5243001;28;20029;-68
2022/11/23 08:45:46;;;;;;;18.00;4.22;;;;;;;8.46;100.00;99691.44;5242803;28;20057;-68
2022/11/23 08:48:17;;;;;;;11.57;2.85;;;;;;;8.50;100.00;99695.41;5247046;28;20068;-68
2022/11/23 08:50:49;;;;;;;12.90;3.63;;;;;;;8.48;100.00;99695.53;5243980;28;20028;-68
2022/11/23 08:53:20;;;;;;;13.93;3.25;;;;;;;8.49;100.00;99691.97;5241252;28;20398;-68
2022/11/23 08:55:51;;;;;;;15.60;3.38;;;;;;;8.46;100.00;99692.25;5244908;28;20393;-68
2022/11/23 08:58:23;;;;;;;15.55;3.38;;;;;;;8.51;100.00;99687.41;5241510;28;20747;-68
2022/11/23 09:00:54;;;;;;;11.73;3.10;;;;;;;8.56;100.00;99684.38;5246215;28;20513;-68
2022/11/23 09:03:25;;;;;;;11.25;2.40;;;;;;;8.52;100.00;99694.28;5237338;28;20029;-68
2022/11/23 09:05:58;;;;;;;11.25;2.60;;;;;;;8.61;100.00;99676.94;5247073;28;20029;-68
2022/11/23 09:08:30;;;;;;;13.52;2.88;;;;;;;8.55;100.00;99685.34;5242055;28;20498;-67
2022/11/23 09:11:04;;;;;;;12.80;2.80;;;;;;;8.57;100.00;99686.03;5240242;28;20044;-68
2022/11/23 09:13:36;;;;;;;13.20;2.63;;;;;;;8.65;100.00;99686.13;5241300;28;20139;-68
2022/11/23 09:16:08;;;;;;;15.50;3.28;;;;;;;8.60;100.00;99679.66;5243533;28;20226;-68
2022/11/23 09:18:40;;;;;;;9.57;2.40;;;;;;;8.70;100.00;99686.47;5242993;28;20291;-68
2022/11/23 09:21:11;;;;;;;13.20;3.00;;;;;;;8.72;100.00;99679.34;5243630;28;20348;-68
2022/11/23 09:23:42;;;;;;;14.35;2.67;;;;;;;8.62;100.00;99673.34;5238285;28;20481;-68
2022/11/23 09:26:16;;;;;;;9.43;2.33;;;;;;;8.65;100.00;99675.66;5244851;28;20025;-68
2022/11/23 09:28:48;;;;;;;12.88;3.05;;;;;;;8.68;100.00;99677.19;5247058;28;20477;-68
2022/11/23 09:31:19;;;;;;;11.15;2.25;;;;;;;8.70;100.00;99660.38;5245594;28;20017;-68
2022/11/23 09:33:53;;;;;;;10.57;2.50;;;;;;;8.76;100.00;99656.38;5243048;28;20116;-68
2022/11/23 09:36:25;;;;;;;9.27;2.97;;;;;;;8.71;100.00;99650.75;5241486;28;20025;-68
2022/11/23 09:38:56;;;;;;;10.27;3.53;;;;;;;8.76;100.00;99651.97;5244595;28;20548;-68
2022/11/23 09:41:48;;;;;;;13.65;3.22;;;;;;;8.81;100.00;99641.06;5241220;28;20027;-68
2022/11/23 09:44:48;;;;;;;14.95;2.60;;;;;;;8.89;100.00;99645.56;5240790;28;20439;-68
2022/11/23 09:47:44;;;;;;;11.35;2.58;;;;;;;8.84;100.00;99645.19;5245056;28;20042;-68
2022/11/23 09:50:46;;;;;;;11.65;2.75;;;;;;;9.13;100.00;99631.88;5242248;28;20124;-68
2022/11/23 09:53:35;;;;;;;7.25;2.13;;;;;;;9.11;100.00;99624.19;5241765;28;20028;-68
2022/11/23 09:56:16;;;;;;;9.35;2.60;;;;;;;9.06;100.00;99629.06;5242589;28;20113;-68
2022/11/23 09:58:53;;;;;;;13.35;2.92;;;;;;;9.04;100.00;99622.34;5243387;28;20363;-68
2022/11/23 10:01:26;;;;;;;9.60;2.50;;;;;;;9.09;100.00;99618.31;5242044;28;20033;-68
2022/11/23 10:03:57;;;;;;;10.32;1.83;;;;;;;9.12;100.00;99618.00;5241867;28;20033;-68
2022/11/23 10:06:34;;;;;;;12.63;1.90;;;;;;;9.21;100.00;99619.72;5239867;28;20032;-68
2022/11/23 10:09:27;;;;;;;16.40;2.38;;;;;;;9.40;100.00;99615.28;5244805;28;20038;-68
2022/11/23 10:12:13;;;;;;;9.77;2.08;;;;;;;9.37;100.00;99602.53;5245290;28;20072;-68
2022/11/23 10:14:50;;;;;;;10.02;1.95;;;;;;;9.32;100.00;99608.22;5240063;28;20037;-68
2022/11/23 10:17:48;;;;;;;12.35;2.75;;;;;;;9.63;100.00;99599.91;5240719;28;20113;-68
2022/11/23 10:20:56;;;;;;;9.98;2.30;;;;;;;9.68;100.00;99601.06;5240869;28;20111;-68
2022/11/23 10:23:54;;;;;;;9.25;2.45;;;;;;;9.73;100.00;99605.84;5239022;28;20082;-68
2022/11/23 10:26:37;;;;;;;8.95;2.15;;;;;;;9.73;100.00;99603.22;5241113;28;20030;-68
2022/11/23 10:29:14;;;;;;;8.37;3.03;;;;;;;9.74;100.00;99597.84;5241949;28;20312;-68
2022/11/23 10:31:48;;;;;;;11.70;2.22;;;;;;;9.78;100.00;99608.81;5239425;28;20037;-68
2022/11/23 10:34:34;;;;;;;8.65;1.95;;;;;;;9.87;100.00;99599.22;5249452;28;20060;-68
2022/11/23 10:37:11;;;;;;;13.05;2.78;;;;;;;9.98;100.00;99601.56;5240088;28;20478;-68
2022/11/23 10:39:43;;;;;;;8.90;2.13;;;;;;;9.99;100.00;99605.81;5244688;28;20048;-68
2022/11/23 10:42:39;;;;;;;7.45;1.63;;;;;;;10.20;100.00;99592.34;5242398;28;20478;-68
2022/11/23 10:45:23;;;;;;;5.93;1.67;;;;;;;10.22;100.00;99592.97;5241670;28;20033;-68
2022/11/23 10:47:57;;;;;;;;;;;;;;;10.58;100.00;99595.41;5242296;28;20482;-68
2022/11/23 10:50:39;;;;;;;10.77;1.85;;;;;;;10.26;100.00;99591.72;5241369;28;19917;-68
2022/11/23 10:53:21;;;;;;;10.02;2.40;;;;;;;10.32;100.00;99600.75;5245039;28;20033;-68
2022/11/23 10:55:58;;;;;;;5.63;1.70;;;;;;;10.30;100.00;99594.84;5242654;28;20017;-68
2022/11/23 10:58:35;;;;;;;7.18;2.10;;;;;;;10.31;100.00;99588.66;5243871;28;20044;-68
2022/11/23 11:01:13;;;;;;;10.30;1.58;;;;;;;10.48;100.00;99585.88;5243387;28;20078;-68
2022/11/23 11:03:44;;;;;;;11.68;2.28;;;;;;;10.37;100.00;99578.34;5246568;28;20088;-68
2022/11/23 11:06:27;;;;;;;7.47;1.90;;;;;;;10.55;100.00;99570.34;5238217;28;20029;-68
2022/11/23 11:09:04;;;;;;;8.73;1.80;;;;;;;10.62;100.00;99563.50;5242980;28;20041;-68
2022/11/23 11:11:45;;;;;;;7.00;1.52;;;;;;;10.74;100.00;99565.81;5242470;28;20124;-68
2022/11/23 11:14:19;;;;;;;8.65;1.90;;;;;;;10.65;100.00;99567.59;5239326;28;20033;-69
2022/11/23 11:16:57;;;;;;;5.93;1.70;;;;;;;10.61;100.00;99551.41;5244862;28;20017;-69
2022/11/23 11:19:30;;;;;;;7.75;1.90;;;;;;;10.54;100.00;99570.53;5239899;28;20072;-69
2022/11/23 11:22:23;;;;;;;5.90;1.70;;;;;;;10.65;100.00;99562.38;5242558;28;20091;-69
2022/11/23 11:24:54;;;;;;;6.88;1.33;;;;;;;10.61;100.00;99556.63;5243298;28;20029;-69
2022/11/23 11:27:29;;;;;;;9.55;1.65;;;;;;;10.65;100.00;99551.88;5239483;28;20040;-69
2022/11/23 11:30:06;;;;;;;5.55;1.38;;;;;;;10.66;100.00;99541.25;5242349;28;20030;-69
2022/11/23 11:32:37;;;;;;;7.93;1.80;;;;;;;10.67;100.00;99534.19;5236741;28;20057;-69
2022/11/23 11:35:25;;;;;;;6.20;1.70;;;;;;;10.82;100.00;99523.88;5243845;28;20021;-69
2022/11/23 11:38:02;;;;;;;7.38;2.58;;;;;;;10.89;100.00;99533.53;5236784;28;20095;-69
2022/11/23 11:40:43;;;;;;;10.65;1.70;;;;;;;10.92;100.00;99520.13;5239652;28;20030;-69
2022/11/23 11:43:38;;;;;;;4.57;1.50;;;;;;;11.18;100.00;99519.13;5239783;28;20056;-69
2022/11/23 11:46:13;;;;;;;7.30;1.67;;;;;;;11.00;100.00;99521.09;5236780;28;20037;-69
2022/11/23 11:48:50;;;;;;;6.65;1.75;;;;;;;10.96;100.00;99508.31;5244997;28;20045;-68
2022/11/23 11:51:30;;;;;;;5.72;1.77;;;;;;;11.16;100.00;99503.53;5242747;28;20025;-69
2022/11/23 11:54:14;;;;;;;6.78;1.88;;;;;;;11.22;100.00;99494.22;5239664;28;20476;-70
2022/11/23 11:56:48;;;;;;;;;;;;;;;11.72;100.00;99490.44;5240903;28;20100;-69